createdAt,value
2019-01-21T00:01:09.891Z,18.23
2019-01-21T00:03:39.272Z,17.03
2019-01-21T00:06:08.610Z,18.77
2019-01-21T00:08:37.969Z,15.80
2019-01-21T00:11:07.311Z,16.50
2019-01-21T00:13:36.820Z,23.63
2019-01-21T00:16:06.325Z,19.77
2019-01-21T00:18:36.475Z,22.33
2019-01-21T00:21:05.834Z,21.00
2019-01-21T00:23:35.182Z,21.40
2019-01-21T00:26:04.658Z,23.67
2019-01-21T00:28:34.468Z,20.37
2019-01-21T00:31:03.970Z,21.87
2019-01-21T00:33:33.338Z,21.40
2019-01-21T00:36:02.724Z,16.83
2019-01-21T00:38:32.097Z,18.07
2019-01-21T00:41:01.456Z,16.67
2019-01-21T00:43:32.866Z,16.93
2019-01-21T00:46:04.561Z,16.17
2019-01-21T00:48:33.957Z,18.27
2019-01-21T00:51:03.300Z,16.90
2019-01-21T00:53:32.651Z,15.27
2019-01-21T00:56:02.046Z,17.57
2019-01-21T00:58:31.428Z,17.43
2019-01-21T01:01:02.969Z,17.33
2019-01-21T01:03:32.307Z,16.20
2019-01-21T01:06:01.665Z,15.63
2019-01-21T01:08:33.764Z,14.43
2019-01-21T01:11:03.147Z,14.83
2019-01-21T01:13:32.526Z,15.80
2019-01-21T01:16:01.892Z,15.93
2019-01-21T01:18:31.257Z,15.57
2019-01-21T01:21:00.623Z,18.30
2019-01-21T01:23:29.991Z,19.20
2019-01-21T01:25:59.351Z,16.80
2019-01-21T01:28:29.600Z,20.10
2019-01-21T01:30:58.992Z,18.97
2019-01-21T01:33:28.333Z,18.60
2019-01-21T01:35:57.721Z,18.70
2019-01-21T01:38:27.058Z,20.17
2019-01-21T01:40:56.432Z,18.53
2019-01-21T01:43:25.806Z,16.47
2019-01-21T01:45:55.192Z,21.70
2019-01-21T01:48:24.567Z,24.93
2019-01-21T01:50:53.914Z,24.30
2019-01-21T01:53:23.288Z,21.97
2019-01-21T01:55:52.729Z,21.87
2019-01-21T01:58:22.109Z,23.53
2019-01-21T02:00:51.474Z,19.97
2019-01-21T02:03:23.138Z,20.80
2019-01-21T02:05:52.483Z,21.63
2019-01-21T02:08:21.866Z,22.07
2019-01-21T02:10:51.209Z,23.77
2019-01-21T02:13:20.550Z,22.30
2019-01-21T02:15:49.941Z,23.03
2019-01-21T02:18:19.299Z,21.40
2019-01-21T02:20:51.207Z,22.67
2019-01-21T02:23:22.408Z,22.90
2019-01-21T02:25:58.620Z,20.47
2019-01-21T02:28:40.960Z,21.97
2019-01-21T02:31:45.861Z,22.73
2019-01-21T02:34:42.224Z,15.77
2019-01-21T02:37:46.797Z,16.23
2019-01-21T02:41:09.235Z,16.77
2019-01-21T02:44:34.834Z,13.53
2019-01-21T02:47:50.439Z,19.05
2019-01-21T02:51:01.657Z,20.55
2019-01-21T02:53:54.783Z,21.87
2019-01-21T02:57:20.257Z,20.27
2019-01-21T03:00:02.046Z,19.37
2019-01-21T03:03:15.258Z,21.03
2019-01-21T03:06:22.648Z,18.92
2019-01-21T03:09:30.605Z,17.02
2019-01-21T03:12:39.360Z,15.13
2019-01-21T03:15:46.043Z,19.17
2019-01-21T03:18:55.967Z,17.32
2019-01-21T03:22:21.179Z,16.13
2019-01-21T03:25:26.230Z,15.32
2019-01-21T03:28:45.407Z,15.98
2019-01-21T03:31:47.317Z,14.78
2019-01-21T03:34:54.752Z,19.23
2019-01-21T03:37:55.052Z,15.75
2019-01-21T03:40:37.336Z,15.88
2019-01-21T03:43:44.749Z,16.67
2019-01-21T03:46:36.496Z,16.23
2019-01-21T03:49:15.780Z,14.78
2019-01-21T03:52:25.041Z,15.30
2019-01-21T03:54:59.656Z,13.78
2019-01-21T03:57:53.248Z,13.88
2019-01-21T04:01:05.708Z,16.60
2019-01-21T04:04:34.164Z,12.30
2019-01-21T04:07:31.701Z,18.70
2019-01-21T04:10:29.194Z,13.40
2019-01-21T04:13:25.127Z,13.35
2019-01-21T04:16:47.302Z,15.45
2019-01-21T04:19:32.166Z,16.82
2019-01-21T04:22:42.818Z,12.68
2019-01-21T04:25:48.204Z,13.83
2019-01-21T04:28:48.887Z,10.40
2019-01-21T04:31:50.254Z,9.73
2019-01-21T04:35:08.628Z,10.15
2019-01-21T04:37:55.041Z,10.10
2019-01-21T04:40:51.343Z,12.20
2019-01-21T04:44:16.857Z,14.28
2019-01-21T04:47:33.124Z,18.25
2019-01-21T04:50:42.691Z,13.68
2019-01-21T04:54:03.163Z,13.13
2019-01-21T04:57:13.320Z,12.43
2019-01-21T05:00:10.278Z,13.60
2019-01-21T05:03:33.494Z,12.03
2019-01-21T05:06:38.212Z,11.78
2019-01-21T05:09:31.763Z,11.22
2019-01-21T05:12:36.622Z,10.63
2019-01-21T05:15:36.235Z,7.15
2019-01-21T05:18:42.359Z,14.95
2019-01-21T05:22:11.045Z,11.85
2019-01-21T05:25:24.237Z,8.80
2019-01-21T05:28:15.284Z,9.90
2019-01-21T05:31:16.587Z,8.88
2019-01-21T05:34:06.068Z,7.42
2019-01-21T05:37:25.741Z,9.43
2019-01-21T05:40:23.394Z,9.60
2019-01-21T05:43:38.004Z,8.28
2019-01-21T05:46:50.337Z,8.75
2019-01-21T05:49:55.380Z,8.45
2019-01-21T05:52:47.615Z,8.70
2019-01-21T05:56:19.017Z,8.75
2019-01-21T05:59:33.836Z,10.50
2019-01-21T06:02:49.950Z,9.25
2019-01-21T06:05:56.951Z,9.65
2019-01-21T06:09:01.574Z,7.35
2019-01-21T06:11:56.235Z,9.75
2019-01-21T06:15:02.244Z,12.65
2019-01-21T06:18:08.155Z,10.25
2019-01-21T06:21:17.180Z,8.45
2019-01-21T06:24:27.322Z,10.85
2019-01-21T06:27:36.688Z,9.50
2019-01-21T06:30:28.280Z,12.15
2019-01-21T06:33:41.215Z,11.43
2019-01-21T06:36:45.993Z,15.00
2019-01-21T06:39:56.539Z,12.60
2019-01-21T06:42:58.179Z,11.95
2019-01-21T06:46:11.448Z,14.43
2019-01-21T06:49:07.169Z,14.20
2019-01-21T06:52:29.353Z,12.73
2019-01-21T06:55:35.048Z,13.15
2019-01-21T06:58:36.549Z,13.55
2019-01-21T07:01:48.958Z,9.75
2019-01-21T07:05:16.424Z,10.80
2019-01-21T07:08:31.261Z,11.70
2019-01-21T07:11:43.527Z,12.20
2019-01-21T07:15:17.883Z,11.05
2019-01-21T07:18:30.335Z,11.93
2019-01-21T07:21:45.439Z,13.88
2019-01-21T07:24:46.154Z,14.38
2019-01-21T07:27:48.123Z,12.88
2019-01-21T07:30:34.858Z,15.25
2019-01-21T07:33:38.610Z,14.03
2019-01-21T07:37:00.714Z,17.37
2019-01-21T07:40:01.755Z,18.25
2019-01-21T07:43:01.026Z,43.40
2019-01-21T07:46:04.884Z,18.92
2019-01-21T07:49:10.777Z,16.57
2019-01-21T07:52:22.729Z,15.93
2019-01-21T07:55:27.225Z,20.97
2019-01-21T07:58:49.559Z,18.67
2019-01-21T08:01:46.795Z,16.70
2019-01-21T08:04:57.936Z,18.20
2019-01-21T08:07:57.666Z,16.97
2019-01-21T08:11:08.850Z,20.32
2019-01-21T08:13:59.788Z,21.05
2019-01-21T08:17:07.237Z,23.20
2019-01-21T08:20:20.543Z,18.95
2019-01-21T08:23:33.766Z,22.07
2019-01-21T08:26:58.956Z,22.95
2019-01-21T08:29:57.429Z,23.57
2019-01-21T08:33:05.129Z,17.40
2019-01-21T08:35:50.819Z,19.40
2019-01-21T08:38:55.799Z,17.65
2019-01-21T08:41:58.822Z,18.87
2019-01-21T08:45:09.257Z,22.30
2019-01-21T08:48:09.314Z,16.73
2019-01-21T08:51:26.912Z,16.50
2019-01-21T08:54:16.734Z,16.65
2019-01-21T08:57:25.890Z,18.55
2019-01-21T09:00:15.130Z,20.82
2019-01-21T09:03:22.565Z,19.60
2019-01-21T09:06:36.174Z,18.60
2019-01-21T09:09:46.589Z,18.70
2019-01-21T09:12:34.740Z,20.08
2019-01-21T09:15:27.718Z,18.27
2019-01-21T09:18:38.133Z,25.02
2019-01-21T09:21:47.719Z,19.30
2019-01-21T09:24:58.038Z,23.12
2019-01-21T09:28:04.687Z,23.73
2019-01-21T09:30:58.468Z,18.65
2019-01-21T09:34:14.790Z,23.07
2019-01-21T09:37:18.125Z,22.35
2019-01-21T09:40:17.891Z,26.90
2019-01-21T09:43:13.610Z,23.02
2019-01-21T09:46:14.562Z,21.62
2019-01-21T09:48:42.269Z,19.37
2019-01-21T09:51:14.834Z,22.10
2019-01-21T09:53:46.766Z,23.05
2019-01-21T09:56:16.159Z,22.50
2019-01-21T09:58:46.532Z,23.35
2019-01-21T10:01:17.604Z,21.00
2019-01-21T10:03:47.351Z,23.55
2019-01-21T10:06:18.634Z,18.57
2019-01-21T10:09:38.131Z,23.10
2019-01-21T10:13:00.444Z,21.67
2019-01-21T10:16:19.949Z,24.77
2019-01-21T10:19:14.442Z,21.20
2019-01-21T10:22:49.338Z,17.62
2019-01-21T10:25:52.428Z,17.57
2019-01-21T10:29:08.390Z,18.90
2019-01-21T10:32:13.541Z,19.80
2019-01-21T10:35:20.960Z,15.85
2019-01-21T10:38:26.104Z,16.73
2019-01-21T10:41:33.518Z,19.77
2019-01-21T10:44:37.040Z,19.10
2019-01-21T10:47:32.170Z,15.67
2019-01-21T10:50:47.249Z,18.07
2019-01-21T10:54:15.479Z,16.43
2019-01-21T10:57:10.681Z,19.87
2019-01-21T11:00:20.360Z,13.47
2019-01-21T11:03:13.651Z,16.33
2019-01-21T11:06:18.394Z,16.53
2019-01-21T11:09:14.258Z,16.40
2019-01-21T11:12:18.270Z,17.13
2019-01-21T11:15:12.531Z,15.43
2019-01-21T11:17:54.034Z,18.75
2019-01-21T11:20:53.192Z,16.40
2019-01-21T11:23:51.203Z,14.70
2019-01-21T11:26:48.091Z,14.58
2019-01-21T11:29:48.191Z,13.40
2019-01-21T11:32:42.100Z,13.97
2019-01-21T11:35:45.543Z,14.23
2019-01-21T11:38:51.762Z,10.60
2019-01-21T11:42:01.241Z,8.93
2019-01-21T11:44:56.334Z,11.20
2019-01-21T11:47:55.940Z,9.90
2019-01-21T11:50:51.620Z,8.47
2019-01-21T11:53:45.972Z,10.00
2019-01-21T11:56:44.701Z,8.13
2019-01-21T12:00:07.462Z,9.07
2019-01-21T12:03:07.499Z,13.27
2019-01-21T12:05:57.717Z,9.23
2019-01-21T12:09:20.596Z,9.87
2019-01-21T12:12:00.915Z,5.37
2019-01-21T12:14:59.543Z,5.77
2019-01-21T12:18:21.373Z,8.67
2019-01-21T12:21:50.042Z,10.60
2019-01-21T12:24:35.707Z,7.83
2019-01-21T12:27:40.478Z,12.17
2019-01-21T12:30:56.851Z,11.67
2019-01-21T12:34:04.265Z,9.80
2019-01-21T12:37:01.812Z,11.80
2019-01-21T12:40:14.696Z,7.83
2019-01-21T12:43:23.849Z,8.47
2019-01-21T12:46:16.129Z,7.10
2019-01-21T12:49:35.367Z,8.30
2019-01-21T12:52:24.799Z,9.20
2019-01-21T12:55:54.010Z,9.23
2019-01-21T12:58:47.774Z,8.67
2019-01-21T13:01:47.956Z,10.23
2019-01-21T13:05:01.046Z,9.10
2019-01-21T13:08:10.162Z,7.93
2019-01-21T13:11:16.503Z,10.73
2019-01-21T13:14:09.482Z,7.90
2019-01-21T13:17:16.936Z,7.83
2019-01-21T13:20:09.630Z,9.20
2019-01-21T13:23:19.417Z,8.57
2019-01-21T13:26:28.725Z,11.47
2019-01-21T13:29:10.499Z,11.30
2019-01-21T13:32:02.455Z,8.10
2019-01-21T13:35:24.607Z,10.20
2019-01-21T13:38:37.947Z,10.20
2019-01-21T13:41:43.489Z,9.27
2019-01-21T13:44:38.331Z,8.57
2019-01-21T13:47:37.770Z,7.70
2019-01-21T13:50:46.580Z,8.93
2019-01-21T13:54:12.097Z,4.83
2019-01-21T13:57:18.114Z,6.83
2019-01-21T14:00:42.121Z,8.50
2019-01-21T14:04:20.042Z,10.53
2019-01-21T14:07:30.036Z,10.27
2019-01-21T14:10:42.204Z,6.80
2019-01-21T14:13:48.412Z,8.00
2019-01-21T14:16:43.347Z,8.77
2019-01-21T14:19:53.735Z,8.13
2019-01-21T14:22:52.885Z,7.23
2019-01-21T14:26:08.564Z,5.23
2019-01-21T14:29:30.316Z,9.30
2019-01-21T14:32:38.259Z,7.53
2019-01-21T14:35:51.483Z,7.30
2019-01-21T14:39:00.266Z,7.33
2019-01-21T14:41:50.714Z,5.10
2019-01-21T14:44:59.835Z,5.70
2019-01-21T14:48:28.378Z,7.60
2019-01-21T14:51:28.589Z,9.17
2019-01-21T14:54:27.614Z,5.83
2019-01-21T14:57:24.045Z,6.27
2019-01-21T15:00:52.431Z,5.07
2019-01-21T15:03:52.653Z,5.50
2019-01-21T15:07:03.924Z,6.70
2019-01-21T15:10:09.980Z,7.27
2019-01-21T15:13:23.337Z,6.60
2019-01-21T15:16:34.722Z,7.33
2019-01-21T15:19:47.442Z,7.43
2019-01-21T15:23:03.686Z,7.53
2019-01-21T15:25:58.275Z,8.67
2019-01-21T15:29:01.979Z,8.53
2019-01-21T15:32:06.958Z,7.33
2019-01-21T15:35:44.605Z,12.10
2019-01-21T15:38:48.995Z,9.27
2019-01-21T15:41:53.650Z,12.43
2019-01-21T15:45:11.175Z,10.77
2019-01-21T15:48:09.489Z,9.73
2019-01-21T15:51:05.188Z,17.23
2019-01-21T15:54:07.009Z,15.57
2019-01-21T15:57:09.031Z,38.00
2019-01-21T16:00:10.971Z,28.73
2019-01-21T16:03:07.538Z,17.67
2019-01-21T16:06:10.179Z,19.90
2019-01-21T16:08:48.451Z,11.37
2019-01-21T16:11:53.618Z,12.77
2019-01-21T16:14:50.948Z,18.73
2019-01-21T16:17:35.438Z,14.57
2019-01-21T16:20:15.413Z,11.53
2019-01-21T16:23:22.548Z,11.27
2019-01-21T16:26:20.977Z,11.40
2019-01-21T16:29:25.292Z,8.40
2019-01-21T16:32:21.066Z,8.70
2019-01-21T16:35:13.681Z,9.70
2019-01-21T16:37:54.809Z,9.07
2019-01-21T16:41:06.820Z,11.87
2019-01-21T16:43:36.249Z,12.67
2019-01-21T16:46:05.609Z,9.90
2019-01-21T16:48:36.437Z,8.40
2019-01-21T16:51:05.872Z,10.87
2019-01-21T16:53:35.255Z,10.00
2019-01-21T16:56:05.001Z,8.27
2019-01-21T16:58:34.375Z,12.37
2019-01-21T17:01:03.771Z,14.33
2019-01-21T17:03:33.123Z,9.50
2019-01-21T17:06:02.494Z,7.93
2019-01-21T17:08:31.846Z,13.03
2019-01-21T17:11:01.224Z,10.47
2019-01-21T17:13:30.625Z,10.57
2019-01-21T17:16:00.009Z,7.67
2019-01-21T17:18:29.348Z,8.63
2019-01-21T17:20:58.706Z,9.63
2019-01-21T17:23:28.110Z,6.80
2019-01-21T17:25:57.455Z,11.73
2019-01-21T17:28:26.841Z,11.83
2019-01-21T17:30:56.179Z,11.43
2019-01-21T17:33:27.901Z,7.23
2019-01-21T17:35:57.273Z,10.53
2019-01-21T17:38:26.608Z,8.23
2019-01-21T17:40:58.280Z,11.20
2019-01-21T17:43:27.649Z,6.60
2019-01-21T17:45:57.062Z,9.63
2019-01-21T17:48:26.435Z,8.50
2019-01-21T17:50:55.814Z,13.27
2019-01-21T17:53:25.171Z,8.47
2019-01-21T17:55:54.532Z,7.57
2019-01-21T17:58:23.871Z,6.90
2019-01-21T18:00:53.247Z,10.70
2019-01-21T18:03:22.630Z,8.27
2019-01-21T18:05:52.261Z,6.17
2019-01-21T18:08:21.588Z,8.67
2019-01-21T18:10:50.983Z,6.27
2019-01-21T18:13:20.335Z,8.63
2019-01-21T18:15:49.684Z,10.23
2019-01-21T18:18:19.054Z,7.70
2019-01-21T18:20:48.417Z,7.67
2019-01-21T18:23:17.759Z,8.93
2019-01-21T18:25:47.137Z,7.50
2019-01-21T18:28:16.473Z,10.67
2019-01-21T18:30:45.905Z,7.03
2019-01-21T18:33:15.302Z,11.63
2019-01-21T18:35:44.665Z,7.43
2019-01-21T18:38:14.054Z,11.30
2019-01-21T18:40:43.384Z,7.30
2019-01-21T18:43:12.759Z,11.50
2019-01-21T18:45:42.270Z,6.77
2019-01-21T18:48:11.744Z,5.97
2019-01-21T18:50:41.201Z,9.67
2019-01-21T18:53:10.609Z,6.47
2019-01-21T18:55:40.011Z,6.77
2019-01-21T18:58:09.432Z,13.70
2019-01-21T19:00:38.818Z,13.97
2019-01-21T19:03:08.271Z,13.40
2019-01-21T19:05:37.709Z,10.37
2019-01-21T19:08:07.111Z,7.93
2019-01-21T19:10:36.527Z,6.17
2019-01-21T19:13:05.979Z,7.23
2019-01-21T19:15:35.347Z,8.20
2019-01-21T19:18:04.946Z,5.67
2019-01-21T19:20:34.331Z,5.77
2019-01-21T19:23:03.710Z,10.17
2019-01-21T19:25:33.051Z,7.37
2019-01-21T19:28:04.532Z,8.03
2019-01-21T19:30:33.961Z,4.13
2019-01-21T19:33:03.358Z,4.73
2019-01-21T19:35:37.328Z,5.00
2019-01-21T19:38:06.799Z,5.77
2019-01-21T19:40:36.152Z,10.03
2019-01-21T19:43:05.611Z,5.33
2019-01-21T19:45:37.842Z,6.20
2019-01-21T19:48:07.192Z,5.90
2019-01-21T19:50:36.540Z,5.23
2019-01-21T19:53:05.932Z,7.60
2019-01-21T19:55:40.580Z,7.47
2019-01-21T19:58:10.920Z,5.43
2019-01-21T20:00:40.268Z,6.87
2019-01-21T20:03:09.636Z,3.87
2019-01-21T20:05:38.989Z,7.60
2019-01-21T20:08:08.463Z,5.73
2019-01-21T20:10:37.812Z,7.63
2019-01-21T20:13:07.444Z,6.90
2019-01-21T20:15:38.221Z,8.43
2019-01-21T20:18:07.949Z,4.20
2019-01-21T20:20:39.569Z,3.47
2019-01-21T20:23:09.151Z,5.80
2019-01-21T20:25:38.604Z,7.37
2019-01-21T20:28:08.051Z,4.77
2019-01-21T20:30:37.450Z,8.67
2019-01-21T20:33:07.032Z,5.50
2019-01-21T20:35:36.398Z,4.63
2019-01-21T20:38:05.870Z,9.50
2019-01-21T20:40:35.239Z,3.53
2019-01-21T20:43:04.712Z,2.90
2019-01-21T20:45:34.139Z,4.43
2019-01-21T20:48:03.627Z,4.27
2019-01-21T20:50:33.353Z,5.80
2019-01-21T20:53:03.124Z,6.33
2019-01-21T20:55:32.540Z,6.23
2019-01-21T20:58:02.026Z,6.20
2019-01-21T21:00:31.678Z,4.30
2019-01-21T21:03:01.140Z,7.17
2019-01-21T21:05:30.711Z,5.60
2019-01-21T21:08:00.233Z,8.60
2019-01-21T21:10:29.703Z,8.13
2019-01-21T21:12:59.189Z,5.13
2019-01-21T21:15:30.955Z,6.20
2019-01-21T21:18:00.412Z,7.70
2019-01-21T21:20:29.852Z,6.17
2019-01-21T21:22:59.309Z,3.80
2019-01-21T21:25:28.745Z,7.83
2019-01-21T21:27:58.175Z,16.53
2019-01-21T21:30:29.817Z,7.93
2019-01-21T21:32:59.389Z,8.73
2019-01-21T21:35:28.818Z,8.10
2019-01-21T21:37:58.402Z,12.13
2019-01-21T21:40:27.857Z,8.07
2019-01-21T21:42:58.256Z,4.97
2019-01-21T21:45:29.656Z,10.13
2019-01-21T21:48:01.055Z,15.03
2019-01-21T21:50:33.899Z,8.40
2019-01-21T21:53:03.266Z,9.23
2019-01-21T21:55:32.747Z,9.03
2019-01-21T21:58:02.211Z,10.67
2019-01-21T22:00:31.686Z,11.07
2019-01-21T22:03:01.019Z,11.20
2019-01-21T22:05:30.416Z,10.83
2019-01-21T22:07:59.785Z,12.10
2019-01-21T22:10:29.968Z,9.23
2019-01-21T22:12:59.332Z,5.87
2019-01-21T22:15:28.936Z,9.13
2019-01-21T22:17:58.396Z,8.40
2019-01-21T22:20:27.779Z,13.57
2019-01-21T22:22:57.136Z,9.07
2019-01-21T22:25:26.615Z,11.63
2019-01-21T22:27:55.946Z,11.47
2019-01-21T22:30:27.135Z,17.87
2019-01-21T22:32:56.486Z,14.13
2019-01-21T22:35:25.982Z,14.63
2019-01-21T22:37:55.325Z,11.17
2019-01-21T22:40:24.971Z,17.57
2019-01-21T22:42:54.350Z,18.97
2019-01-21T22:45:23.868Z,17.10
2019-01-21T22:47:53.223Z,21.93
2019-01-21T22:50:22.759Z,16.03
2019-01-21T22:52:52.099Z,18.57
2019-01-21T22:55:21.482Z,19.57
2019-01-21T22:57:50.818Z,21.60
2019-01-21T23:00:59.469Z,17.87
2019-01-21T23:03:29.941Z,26.60
2019-01-21T23:05:59.324Z,18.67
2019-01-21T23:08:28.666Z,24.80
2019-01-21T23:10:58.034Z,31.53
2019-01-21T23:13:27.383Z,19.57
2019-01-21T23:15:56.773Z,16.27
2019-01-21T23:18:26.162Z,17.63
2019-01-21T23:20:55.535Z,17.47
2019-01-21T23:23:24.882Z,13.97
2019-01-21T23:25:54.281Z,10.73
2019-01-21T23:28:23.670Z,15.73
2019-01-21T23:30:53.032Z,16.90
2019-01-21T23:33:22.580Z,15.93
2019-01-21T23:35:51.975Z,21.97
2019-01-21T23:38:21.312Z,13.23
2019-01-21T23:40:50.692Z,14.67
2019-01-21T23:43:20.090Z,19.27
2019-01-21T23:45:49.702Z,24.57
2019-01-21T23:48:19.079Z,17.53
2019-01-21T23:50:48.458Z,21.50
2019-01-21T23:53:17.818Z,8.40
2019-01-21T23:55:47.154Z,11.03
2019-01-21T23:58:16.533Z,16.20
